createdAt,value
2019-02-19T00:00:24.889Z,55.66
2019-02-19T00:02:53.213Z,55.60
2019-02-19T00:22:57.593Z,55.01
2019-02-19T00:25:25.868Z,54.94
2019-02-19T00:27:54.163Z,54.92
2019-02-19T00:30:22.416Z,54.89
2019-02-19T00:32:51.206Z,54.90
2019-02-19T00:35:19.534Z,54.89
2019-02-19T00:37:47.851Z,54.90
2019-02-19T00:40:16.153Z,54.82
2019-02-19T00:42:44.433Z,54.85
2019-02-19T00:45:16.709Z,54.94
2019-02-19T00:47:42.741Z,55.06
2019-02-19T00:50:11.032Z,55.09
2019-02-19T00:52:39.354Z,55.11
2019-02-19T00:55:07.635Z,55.03
2019-02-19T01:15:56.876Z,54.33
2019-02-19T01:18:25.144Z,54.27
2019-02-19T01:20:53.637Z,54.27
2019-02-19T01:23:21.899Z,54.30
2019-02-19T01:25:50.118Z,54.22
2019-02-19T01:28:18.416Z,54.23
2019-02-19T01:30:46.652Z,54.32
2019-02-19T01:33:14.891Z,54.43
2019-02-19T01:35:43.161Z,54.45
2019-02-19T01:38:11.394Z,54.55
2019-02-19T01:40:39.622Z,54.64
2019-02-19T01:43:08.171Z,54.71
2019-02-19T01:45:36.388Z,54.80
2019-02-19T01:48:04.637Z,54.98
2019-02-19T01:50:32.901Z,55.11
2019-02-19T01:53:01.144Z,55.19
2019-02-19T01:55:29.487Z,55.27
2019-02-19T01:57:57.742Z,55.42
2019-02-19T02:00:26.003Z,55.52
2019-02-19T02:02:54.236Z,55.63
2019-02-19T02:05:24.102Z,55.53
2019-02-19T02:07:52.517Z,55.53
2019-02-19T02:10:20.923Z,55.50
2019-02-19T02:12:49.169Z,55.50
2019-02-19T02:15:17.422Z,55.61
2019-02-19T02:17:45.689Z,55.74
2019-02-19T02:20:13.936Z,55.80
2019-02-19T02:22:42.170Z,55.91
2019-02-19T02:25:10.419Z,55.90
2019-02-19T02:27:39.021Z,55.89
2019-02-19T02:30:08.129Z,55.98
2019-02-19T02:32:36.341Z,56.00
2019-02-19T02:35:04.923Z,56.00
2019-02-19T02:37:33.323Z,55.93
2019-02-19T02:40:01.578Z,55.88
2019-02-19T02:42:29.841Z,55.88
2019-02-19T02:44:58.060Z,55.93
2019-02-19T02:47:26.341Z,56.02
2019-02-19T02:49:54.622Z,56.14
2019-02-19T02:52:22.883Z,56.22
2019-02-19T02:54:51.067Z,56.27
2019-02-19T02:57:19.303Z,56.21
2019-02-19T02:59:47.570Z,56.30
2019-02-19T03:02:15.797Z,56.27
2019-02-19T03:04:44.069Z,56.25
2019-02-19T03:07:16.664Z,56.23
2019-02-19T03:09:44.934Z,56.21
2019-02-19T03:12:13.225Z,56.20
2019-02-19T03:14:41.477Z,56.24
2019-02-19T03:17:09.895Z,56.21
2019-02-19T03:19:38.157Z,56.16
2019-02-19T03:22:06.411Z,56.18
2019-02-19T03:24:34.657Z,56.13
2019-02-19T03:27:02.960Z,56.06
2019-02-19T03:29:31.208Z,56.02
2019-02-19T03:31:59.484Z,56.02
2019-02-19T03:34:27.772Z,56.09
2019-02-19T03:36:56.096Z,56.05
2019-02-19T03:39:24.340Z,56.03
2019-02-19T03:41:52.675Z,56.06
2019-02-19T03:44:20.936Z,56.12
2019-02-19T03:46:49.304Z,56.21
2019-02-19T03:49:17.716Z,56.17
2019-02-19T03:51:45.948Z,56.22
2019-02-19T03:54:14.175Z,56.26
2019-02-19T03:56:42.420Z,56.26
2019-02-19T03:59:10.692Z,56.26
2019-02-19T04:01:38.968Z,56.29
2019-02-19T04:04:07.258Z,56.37
2019-02-19T04:06:35.473Z,56.45
2019-02-19T04:09:04.773Z,56.57
2019-02-19T04:11:33.338Z,56.72
2019-02-19T04:14:01.592Z,56.84
2019-02-19T04:16:29.991Z,56.94
2019-02-19T04:18:58.221Z,57.04
2019-02-19T04:21:26.464Z,57.21
2019-02-19T04:23:54.690Z,57.23
2019-02-19T04:26:22.967Z,57.23
2019-02-19T04:28:51.225Z,57.25
2019-02-19T04:31:19.478Z,57.22
2019-02-19T04:33:47.874Z,57.28
2019-02-19T04:36:16.132Z,57.22
2019-02-19T04:38:44.684Z,57.25
2019-02-19T04:41:12.966Z,57.14
2019-02-19T04:43:41.207Z,57.19
2019-02-19T04:46:09.465Z,57.37
2019-02-19T04:48:37.709Z,57.46
2019-02-19T04:51:05.938Z,57.54
2019-02-19T04:53:34.292Z,57.43
2019-02-19T04:56:02.697Z,57.27
2019-02-19T04:58:31.025Z,57.12
2019-02-19T05:00:59.240Z,57.12
2019-02-19T05:03:27.476Z,57.05
2019-02-19T05:05:55.784Z,57.14
2019-02-19T05:08:24.069Z,57.12
2019-02-19T05:10:52.415Z,57.20
2019-02-19T05:13:21.036Z,57.13
2019-02-19T05:15:49.739Z,57.27
2019-02-19T05:18:18.023Z,57.47
2019-02-19T05:20:46.374Z,57.62
2019-02-19T05:23:14.638Z,57.73
2019-02-19T05:25:42.866Z,57.65
2019-02-19T05:28:11.193Z,57.60
2019-02-19T05:30:39.523Z,57.61
2019-02-19T05:33:07.761Z,57.81
2019-02-19T05:35:35.995Z,58.04
2019-02-19T05:38:04.253Z,58.09
2019-02-19T05:40:32.517Z,58.14
2019-02-19T05:43:01.591Z,58.21
2019-02-19T05:45:30.043Z,58.28
2019-02-19T05:47:58.330Z,58.50
2019-02-19T05:50:26.660Z,58.70
2019-02-19T05:52:55.229Z,58.63
2019-02-19T05:55:23.616Z,58.62
2019-02-19T05:57:51.834Z,58.81
2019-02-19T06:00:20.074Z,58.79
2019-02-19T06:02:48.670Z,58.79
2019-02-19T06:05:16.969Z,59.09
2019-02-19T06:07:45.212Z,59.27
2019-02-19T06:10:13.457Z,59.35
2019-02-19T06:12:41.844Z,59.37
2019-02-19T06:15:12.051Z,59.43
2019-02-19T06:17:41.940Z,59.38
2019-02-19T06:20:10.272Z,59.43
2019-02-19T06:22:38.528Z,59.68
2019-02-19T06:25:08.590Z,59.57
2019-02-19T06:27:36.861Z,59.41
2019-02-19T06:30:11.004Z,59.48
2019-02-19T06:32:39.393Z,60.00
2019-02-19T06:35:08.516Z,60.14
2019-02-19T06:37:36.851Z,60.11
2019-02-19T06:40:11.284Z,60.09
2019-02-19T06:42:39.531Z,59.94
2019-02-19T06:45:07.763Z,59.89
2019-02-19T06:47:36.079Z,59.72
2019-02-19T06:50:05.682Z,59.61
2019-02-19T06:52:33.961Z,59.40
2019-02-19T06:55:02.546Z,59.43
2019-02-19T06:57:30.811Z,59.52
2019-02-19T06:59:59.063Z,59.45
2019-02-19T07:02:40.859Z,59.46
2019-02-19T07:05:10.766Z,59.35
2019-02-19T07:07:39.041Z,59.49
2019-02-19T07:10:08.023Z,59.48
2019-02-19T07:12:36.443Z,59.64
2019-02-19T07:15:07.002Z,59.67
2019-02-19T07:17:35.306Z,59.76
2019-02-19T07:20:04.503Z,59.59
2019-02-19T07:22:32.733Z,59.62
2019-02-19T07:25:00.965Z,59.71
2019-02-19T07:27:29.255Z,59.67
2019-02-19T07:29:57.783Z,59.70
2019-02-19T07:32:26.070Z,59.74
2019-02-19T07:34:54.363Z,59.80
2019-02-19T07:37:22.583Z,59.78
2019-02-19T07:39:51.095Z,59.70
2019-02-19T07:42:19.392Z,59.77
2019-02-19T07:44:47.670Z,59.83
2019-02-19T07:47:24.228Z,59.71
2019-02-19T07:49:45.862Z,59.86
2019-02-19T07:52:14.285Z,59.76
2019-02-19T07:54:42.638Z,59.73
2019-02-19T07:57:10.875Z,59.78
2019-02-19T07:59:39.122Z,59.79
2019-02-19T08:02:07.517Z,59.79
2019-02-19T08:04:35.741Z,59.98
2019-02-19T08:07:04.047Z,60.16
2019-02-19T08:09:32.284Z,60.03
2019-02-19T08:12:00.536Z,60.03
2019-02-19T08:14:28.779Z,59.88
2019-02-19T08:16:57.022Z,60.06
2019-02-19T08:19:25.271Z,60.07
2019-02-19T08:21:53.928Z,60.03
2019-02-19T08:24:22.530Z,60.12
2019-02-19T08:26:50.856Z,60.09
2019-02-19T08:29:19.123Z,59.94
2019-02-19T08:31:47.385Z,59.80
2019-02-19T08:34:15.644Z,59.69
2019-02-19T08:36:43.869Z,59.88
2019-02-19T08:39:12.087Z,59.97
2019-02-19T08:41:40.323Z,60.10
2019-02-19T08:44:08.595Z,59.90
2019-02-19T08:46:37.141Z,59.97
2019-02-19T08:49:05.382Z,59.91
2019-02-19T08:51:33.647Z,59.93
2019-02-19T08:54:01.884Z,59.94
2019-02-19T08:56:30.142Z,59.78
2019-02-19T08:58:58.415Z,59.64
2019-02-19T09:01:26.641Z,59.53
2019-02-19T09:03:54.962Z,59.62
2019-02-19T09:06:23.235Z,59.62
2019-02-19T09:08:51.452Z,59.46
2019-02-19T09:11:19.806Z,59.23
2019-02-19T09:13:48.058Z,58.93
2019-02-19T09:16:16.335Z,58.71
2019-02-19T09:18:44.635Z,58.83
2019-02-19T09:21:12.891Z,59.09
2019-02-19T09:23:42.387Z,59.24
2019-02-19T09:26:10.799Z,59.26
2019-02-19T09:28:39.502Z,59.36
2019-02-19T09:31:07.736Z,59.37
2019-02-19T09:33:36.014Z,59.38
2019-02-19T09:36:04.648Z,59.24
2019-02-19T09:38:33.263Z,59.07
2019-02-19T09:41:01.815Z,59.08
2019-02-19T09:43:35.521Z,59.21
2019-02-19T09:46:00.371Z,59.11
2019-02-19T09:48:28.646Z,59.06
2019-02-19T09:50:56.927Z,59.12
2019-02-19T09:53:25.200Z,59.29
2019-02-19T09:55:53.452Z,59.28
2019-02-19T09:58:21.859Z,59.42
2019-02-19T10:00:50.248Z,59.30
2019-02-19T10:03:18.607Z,59.33
2019-02-19T10:05:48.156Z,59.41
2019-02-19T10:08:16.450Z,59.71
2019-02-19T10:10:44.707Z,59.99
2019-02-19T10:13:12.986Z,60.05
2019-02-19T10:15:41.224Z,60.04
2019-02-19T10:18:10.554Z,59.84
2019-02-19T10:20:39.093Z,59.64
2019-02-19T10:23:07.347Z,59.71
2019-02-19T10:25:35.656Z,59.85
2019-02-19T10:28:03.898Z,59.77
2019-02-19T10:30:32.212Z,59.51
2019-02-19T10:33:00.508Z,58.79
2019-02-19T10:35:28.816Z,57.96
2019-02-19T10:37:57.140Z,57.66
2019-02-19T10:40:25.397Z,57.51
2019-02-19T10:42:53.649Z,57.39
2019-02-19T10:45:24.188Z,57.51
2019-02-19T10:47:52.437Z,57.81
2019-02-19T10:50:20.695Z,57.88
2019-02-19T10:52:48.954Z,57.98
2019-02-19T10:55:17.222Z,57.77
2019-02-19T10:57:45.448Z,57.37
2019-02-19T11:00:20.558Z,56.93
2019-02-19T11:02:48.801Z,56.58
2019-02-19T11:05:17.511Z,56.50
2019-02-19T11:07:45.773Z,56.42
2019-02-19T11:10:14.556Z,55.99
2019-02-19T11:12:42.795Z,56.19
2019-02-19T11:15:13.222Z,56.51
2019-02-19T11:17:41.469Z,56.55
2019-02-19T11:20:12.079Z,56.44
2019-02-19T11:22:40.377Z,56.73
2019-02-19T11:25:10.975Z,56.91
2019-02-19T11:27:39.354Z,56.90
2019-02-19T11:30:10.737Z,57.13
2019-02-19T11:32:39.018Z,57.39
2019-02-19T11:35:08.680Z,57.68
2019-02-19T11:37:37.467Z,57.67
2019-02-19T11:40:09.070Z,57.54
2019-02-19T11:42:37.360Z,57.20
2019-02-19T11:45:14.474Z,56.87
2019-02-19T11:47:42.718Z,56.70
2019-02-19T11:50:12.225Z,56.63
2019-02-19T11:52:40.549Z,56.66
2019-02-19T11:55:14.866Z,56.90
2019-02-19T11:57:43.113Z,56.91
2019-02-19T12:00:37.454Z,56.99
2019-02-19T12:03:05.731Z,57.19
2019-02-19T12:05:33.963Z,57.05
2019-02-19T12:08:02.184Z,56.60
2019-02-19T12:10:30.445Z,56.17
2019-02-19T12:12:58.697Z,55.94
2019-02-19T12:15:34.945Z,55.97
2019-02-19T12:17:57.052Z,55.87
2019-02-19T12:20:25.316Z,55.84
2019-02-19T12:22:53.573Z,56.10
2019-02-19T12:25:21.826Z,55.90
2019-02-19T12:27:50.076Z,55.88
2019-02-19T12:30:19.361Z,56.05
2019-02-19T12:32:47.611Z,55.99
2019-02-19T12:35:15.941Z,55.73
2019-02-19T12:37:44.235Z,55.47
2019-02-19T12:40:13.498Z,55.25
2019-02-19T12:42:41.766Z,55.22
2019-02-19T12:45:14.753Z,55.22
2019-02-19T12:47:42.999Z,55.49
2019-02-19T12:50:16.354Z,55.83
2019-02-19T12:52:44.562Z,55.94
2019-02-19T12:55:12.847Z,56.19
2019-02-19T12:57:41.150Z,56.14
2019-02-19T13:00:16.731Z,56.12
2019-02-19T13:02:45.240Z,56.15
2019-02-19T13:05:14.634Z,56.11
2019-02-19T13:07:42.886Z,56.07
2019-02-19T13:10:12.062Z,55.98
2019-02-19T13:12:40.381Z,56.10
2019-02-19T13:15:23.601Z,56.03
2019-02-19T13:17:51.875Z,55.95
2019-02-19T13:20:20.136Z,55.92
2019-02-19T13:22:48.403Z,55.95
2019-02-19T13:25:16.656Z,56.02
2019-02-19T13:27:44.903Z,56.04
2019-02-19T13:30:18.668Z,56.05
2019-02-19T13:32:46.941Z,56.12
2019-02-19T13:35:15.208Z,56.13
2019-02-19T13:37:43.568Z,56.05
2019-02-19T13:40:16.719Z,55.87
2019-02-19T13:42:44.995Z,55.74
2019-02-19T13:45:14.851Z,55.72
2019-02-19T13:47:43.134Z,55.85
2019-02-19T13:50:17.227Z,55.71
2019-02-19T13:52:47.103Z,55.55
2019-02-19T13:55:17.014Z,55.38
2019-02-19T13:57:45.304Z,55.51
2019-02-19T14:00:15.166Z,55.72
2019-02-19T14:02:43.465Z,55.73
2019-02-19T14:05:12.057Z,55.70
2019-02-19T14:07:40.380Z,55.65
2019-02-19T14:10:10.704Z,55.64
2019-02-19T14:12:38.935Z,55.66
2019-02-19T14:15:11.662Z,55.65
2019-02-19T14:17:39.926Z,55.77
2019-02-19T14:20:09.964Z,55.76
2019-02-19T14:22:39.932Z,55.68
2019-02-19T14:25:10.437Z,55.73
2019-02-19T14:27:42.760Z,55.66
2019-02-19T14:30:16.010Z,55.75
2019-02-19T14:33:01.696Z,55.78
2019-02-19T14:35:34.880Z,55.69
2019-02-19T14:38:04.794Z,55.71
2019-02-19T14:40:50.828Z,55.67
2019-02-19T14:43:36.614Z,55.58
2019-02-19T14:46:13.019Z,55.45
2019-02-19T14:48:43.025Z,55.43
2019-02-19T14:51:15.875Z,55.48
2019-02-19T14:53:58.002Z,55.62
2019-02-19T14:56:27.953Z,55.95
2019-02-19T14:59:10.006Z,56.00
2019-02-19T15:01:39.940Z,55.92
2019-02-19T15:04:22.005Z,55.73
2019-02-19T15:07:00.883Z,55.57
2019-02-19T15:09:37.004Z,55.53
2019-02-19T15:12:06.926Z,55.63
2019-02-19T15:14:49.497Z,55.68
2019-02-19T15:17:35.566Z,55.60
2019-02-19T15:20:05.877Z,55.45
2019-02-19T15:22:35.811Z,55.40
2019-02-19T15:25:10.059Z,55.64
2019-02-19T15:27:51.975Z,55.92
2019-02-19T15:30:21.905Z,56.21
2019-02-19T15:32:51.752Z,56.37
2019-02-19T15:35:27.504Z,56.46
2019-02-19T15:37:57.355Z,56.54
2019-02-19T15:40:46.187Z,56.58
2019-02-19T15:43:34.053Z,56.58
2019-02-19T15:46:20.137Z,56.52
2019-02-19T15:48:50.027Z,56.47
2019-02-19T15:51:31.910Z,56.27
2019-02-19T15:54:19.851Z,56.20
2019-02-19T15:56:58.715Z,56.24
2019-02-19T15:59:44.775Z,56.40
2019-02-19T16:02:17.380Z,56.42
2019-02-19T16:04:47.348Z,56.26
2019-02-19T16:07:32.249Z,56.19
2019-02-19T16:10:04.294Z,56.09
2019-02-19T16:12:36.883Z,55.97
2019-02-19T16:15:18.914Z,56.10
2019-02-19T16:17:48.824Z,56.24
2019-02-19T16:20:27.750Z,56.26
2019-02-19T16:23:03.550Z,56.21
2019-02-19T16:25:36.305Z,56.19
2019-02-19T16:28:08.817Z,56.25
2019-02-19T16:30:41.739Z,56.31
2019-02-19T16:33:17.785Z,56.28
2019-02-19T16:35:47.773Z,56.36
2019-02-19T16:38:20.821Z,56.49
2019-02-19T16:40:51.047Z,56.68
2019-02-19T16:43:29.825Z,57.09
2019-02-19T16:46:05.468Z,57.70
2019-02-19T16:48:51.802Z,58.60
2019-02-19T16:51:21.812Z,59.11
2019-02-19T16:53:51.778Z,59.61
2019-02-19T16:56:33.776Z,59.76
2019-02-19T16:59:19.923Z,59.86
2019-02-19T17:01:52.787Z,59.75
2019-02-19T17:04:25.526Z,59.75
2019-02-19T17:06:55.377Z,59.96
2019-02-19T17:09:28.250Z,60.05
2019-02-19T17:12:13.090Z,60.21
2019-02-19T17:14:57.792Z,60.24
2019-02-19T17:17:36.676Z,60.11
2019-02-19T17:20:17.778Z,60.04
2019-02-19T17:22:40.153Z,60.01
2019-02-19T17:25:27.097Z,59.87
2019-02-19T17:28:12.634Z,60.10
2019-02-19T17:30:45.413Z,60.05
2019-02-19T17:33:15.323Z,60.43
2019-02-19T17:35:45.213Z,60.36
2019-02-19T17:38:15.162Z,60.79
2019-02-19T17:40:47.988Z,61.61
2019-02-19T17:43:29.796Z,62.24
2019-02-19T17:46:15.068Z,62.46
2019-02-19T17:48:50.673Z,62.59
2019-02-19T17:51:36.635Z,62.93
2019-02-19T17:54:23.127Z,63.15
2019-02-19T17:56:55.770Z,63.00
2019-02-19T17:59:34.180Z,62.70
2019-02-19T18:02:06.709Z,62.40
2019-02-19T18:04:51.335Z,62.32
2019-02-19T18:07:37.863Z,62.16
2019-02-19T18:10:15.648Z,61.93
2019-02-19T18:12:51.241Z,61.82
2019-02-19T18:15:33.808Z,61.51
2019-02-19T18:18:19.992Z,61.42
2019-02-19T18:20:48.455Z,61.31
2019-02-19T18:23:17.092Z,61.23
2019-02-19T18:25:45.798Z,61.33
2019-02-19T18:28:14.230Z,61.31
2019-02-19T18:30:42.700Z,61.21
2019-02-19T18:33:11.158Z,60.98
2019-02-19T18:35:39.618Z,60.98
2019-02-19T18:38:08.115Z,61.17
2019-02-19T18:40:36.548Z,61.45
2019-02-19T18:43:05.124Z,61.15
2019-02-19T18:45:33.592Z,60.90
2019-02-19T18:48:02.069Z,61.02
2019-02-19T18:50:30.480Z,60.91
2019-02-19T18:52:58.937Z,61.00
2019-02-19T18:55:27.397Z,61.15
2019-02-19T18:57:55.831Z,61.10
2019-02-19T19:00:24.286Z,61.10
2019-02-19T19:02:52.715Z,61.11
2019-02-19T19:05:21.218Z,61.16
2019-02-19T19:07:49.723Z,61.06
2019-02-19T19:10:18.198Z,61.06
2019-02-19T19:12:46.692Z,61.21
2019-02-19T19:15:15.197Z,61.29
2019-02-19T19:17:43.729Z,61.39
2019-02-19T19:20:12.747Z,61.35
2019-02-19T19:22:41.288Z,61.62
2019-02-19T19:25:09.732Z,61.61
2019-02-19T19:27:38.181Z,61.57
2019-02-19T19:30:12.582Z,61.69
2019-02-19T19:32:41.142Z,61.75
2019-02-19T19:35:11.239Z,62.00
2019-02-19T19:37:39.667Z,61.99
2019-02-19T19:40:11.078Z,61.91
2019-02-19T19:42:39.552Z,62.00
2019-02-19T19:45:10.456Z,61.98
2019-02-19T19:47:38.963Z,62.00
2019-02-19T19:50:11.423Z,61.95
2019-02-19T19:52:39.864Z,61.97
2019-02-19T19:55:10.398Z,62.02
2019-02-19T19:57:39.211Z,62.01
2019-02-19T20:00:12.659Z,61.89
2019-02-19T20:02:41.145Z,61.98
2019-02-19T20:05:10.607Z,62.04
2019-02-19T20:07:39.151Z,62.18
2019-02-19T20:10:12.650Z,62.13
2019-02-19T20:12:41.122Z,62.13
2019-02-19T20:15:11.693Z,62.04
2019-02-19T20:17:40.254Z,62.01
2019-02-19T20:20:11.176Z,62.04
2019-02-19T20:22:39.627Z,61.91
2019-02-19T20:25:12.864Z,61.93
2019-02-19T20:27:41.330Z,61.84
2019-02-19T20:30:12.893Z,61.87
2019-02-19T20:32:41.432Z,62.02
2019-02-19T20:35:10.818Z,62.03
2019-02-19T20:37:39.436Z,62.03
2019-02-19T20:40:12.179Z,62.16
2019-02-19T20:42:40.886Z,62.26
2019-02-19T20:45:11.534Z,62.46
2019-02-19T20:47:40.073Z,62.49
2019-02-19T20:50:11.034Z,62.40
2019-02-19T20:52:39.501Z,62.47
2019-02-19T20:55:11.847Z,62.63
2019-02-19T20:57:40.446Z,62.70
2019-02-19T21:00:15.281Z,62.77
2019-02-19T21:02:43.830Z,62.78
2019-02-19T21:05:12.290Z,62.87
2019-02-19T21:07:40.728Z,62.92
2019-02-19T21:10:15.199Z,62.83
2019-02-19T21:12:43.686Z,62.81
2019-02-19T21:15:13.853Z,62.76
2019-02-19T21:17:42.688Z,62.72
2019-02-19T21:20:12.464Z,62.85
2019-02-19T21:22:40.930Z,62.63
2019-02-19T21:25:10.623Z,62.67
2019-02-19T21:27:39.232Z,62.73
2019-02-19T21:30:15.236Z,62.77
2019-02-19T21:32:43.785Z,62.75
2019-02-19T21:35:12.301Z,62.84
2019-02-19T21:37:40.743Z,62.79
2019-02-19T21:40:11.306Z,62.83
2019-02-19T21:42:39.727Z,62.96
2019-02-19T21:45:10.429Z,63.13
2019-02-19T21:47:39.006Z,63.03
2019-02-19T21:50:10.485Z,63.07
2019-02-19T21:52:39.009Z,63.21
2019-02-19T21:55:11.579Z,63.14
2019-02-19T21:57:40.037Z,63.01
2019-02-19T22:00:19.370Z,63.08
2019-02-19T22:02:47.837Z,63.08
2019-02-19T22:05:16.263Z,62.99
2019-02-19T22:07:44.752Z,62.93
2019-02-19T22:10:14.494Z,62.87
2019-02-19T22:12:42.884Z,62.73
2019-02-19T22:15:12.905Z,62.70
2019-02-19T22:17:41.369Z,62.68
2019-02-19T22:20:14.415Z,62.72
2019-02-19T22:22:42.855Z,62.53
2019-02-19T22:25:11.312Z,62.42
2019-02-19T22:27:39.729Z,62.37
2019-02-19T22:30:09.759Z,62.48
2019-02-19T22:32:38.391Z,62.49
2019-02-19T22:35:07.260Z,62.37
2019-02-19T22:37:35.827Z,62.25
2019-02-19T22:40:05.785Z,62.42
2019-02-19T22:42:34.218Z,62.48
2019-02-19T22:45:02.757Z,62.36
2019-02-19T22:47:31.232Z,62.42
2019-02-19T22:49:59.749Z,62.54
2019-02-19T22:52:28.233Z,62.77
2019-02-19T22:54:58.342Z,62.68
2019-02-19T22:57:26.779Z,62.76
2019-02-19T22:59:55.474Z,62.68
2019-02-19T23:02:23.993Z,62.71
2019-02-19T23:04:52.478Z,62.76
2019-02-19T23:07:21.019Z,62.71
2019-02-19T23:09:49.455Z,62.54
2019-02-19T23:12:17.887Z,62.37
2019-02-19T23:14:46.357Z,62.26
2019-02-19T23:17:15.078Z,62.20
2019-02-19T23:19:43.590Z,62.22
2019-02-19T23:22:12.133Z,62.18
2019-02-19T23:24:40.610Z,62.21
2019-02-19T23:27:09.179Z,62.12
2019-02-19T23:29:37.729Z,62.15
2019-02-19T23:32:06.171Z,62.14
2019-02-19T23:34:34.693Z,62.05
2019-02-19T23:37:03.296Z,62.11
2019-02-19T23:39:31.800Z,62.03
2019-02-19T23:42:00.337Z,61.99
2019-02-19T23:44:28.764Z,61.97
2019-02-19T23:46:57.219Z,62.04
2019-02-19T23:49:25.687Z,61.94
2019-02-19T23:51:54.129Z,61.79
2019-02-19T23:54:22.592Z,61.80
2019-02-19T23:56:51.949Z,62.00
2019-02-19T23:59:20.637Z,62.07
